Time;durP1;ratioP1;P1;durP2;ratioP2;P2;SDS_P1;SDS_P2;PMS_P1;PMS_P2;Temp;Humidity;BMP_temperature;BMP_pressure;BME280_temperature;BME280_humidity;BME280_pressure;Samples;Min_cycle;Max_cycle;Signal;HPM_P1;HPM_P2
2023/07/09 00:00:48;;;;;;;;;;;22.20;97.00;;;;;;5012902;28;20399;-64
2023/07/09 00:03:14;;;;;;;;;;;22.20;97.00;;;;;;5005781;28;20001;-67
2023/07/09 00:05:40;;;;;;;;;;;22.10;97.20;;;;;;5068554;28;20349;-63
2023/07/09 00:08:05;;;;;;;;;;;22.10;97.00;;;;;;5004116;28;20008;-64
2023/07/09 00:10:31;;;;;;;;;;;22.10;97.00;;;;;;5006874;28;20377;-62
2023/07/09 00:12:56;;;;;;;;;;;22.00;97.20;;;;;;5007993;28;20447;-64
2023/07/09 00:15:22;;;;;;;;;;;22.00;97.20;;;;;;5004869;28;20347;-63
2023/07/09 00:17:47;;;;;;;;;;;22.00;97.20;;;;;;5000832;28;19952;-62
2023/07/09 00:20:16;;;;;;;;;;;21.90;97.30;;;;;;5006617;28;20355;-62
2023/07/09 00:22:51;;;;;;;;;;;22.00;97.30;;;;;;5007779;28;19924;-63
2023/07/09 00:25:20;;;;;;;;;;;21.90;97.30;;;;;;5073841;28;19972;-61
2023/07/09 00:27:48;;;;;;;;;;;21.90;96.90;;;;;;5074804;28;20061;-63
2023/07/09 00:30:15;;;;;;;;;;;21.90;97.00;;;;;;5002204;28;19929;-63
2023/07/09 00:32:43;;;;;;;;;;;21.90;96.90;;;;;;5006914;28;19918;-62
2023/07/09 00:35:09;;;;;;;;;;;21.80;97.00;;;;;;5074613;28;19921;-61
2023/07/09 00:37:35;;;;;;;;;;;21.80;97.20;;;;;;5075199;28;19921;-61
2023/07/09 00:40:00;;;;;;;;;;;21.80;97.20;;;;;;5006976;28;20463;-62
2023/07/09 00:42:26;;;;;;;;;;;21.80;97.40;;;;;;5002906;28;20004;-64
2023/07/09 00:44:52;;;;;;;;;;;21.80;97.40;;;;;;5010379;28;20295;-64
2023/07/09 00:47:23;;;;;;;;;;;21.70;97.60;;;;;;5005532;28;19952;-64
2023/07/09 00:49:50;;;;;;;;;;;21.70;97.60;;;;;;5009233;28;20372;-64
2023/07/09 00:52:37;;;;;;;;;;;21.70;97.60;;;;;;5005664;28;20412;-61
2023/07/09 00:55:16;;;;;;;;;;;21.70;97.70;;;;;;5067642;28;19990;-61
2023/07/09 00:57:43;;;;;;;;;;;21.70;97.70;;;;;;5070265;28;19961;-61
2023/07/09 01:00:12;;;;;;;;;;;21.60;97.80;;;;;;5078782;28;19922;-62
2023/07/09 01:02:39;;;;;;;;;;;21.70;97.80;;;;;;5060990;28;20424;-63
2023/07/09 01:05:06;;;;;;;;;;;21.60;97.90;;;;;;5002966;28;19995;-63
2023/07/09 01:07:31;;;;;;;;;;;21.50;97.90;;;;;;5008829;28;19921;-63
2023/07/09 01:09:57;;;;;;;;;;;21.50;97.70;;;;;;5078502;28;20398;-64
2023/07/09 01:12:23;;;;;;;;;;;21.50;97.80;;;;;;5009982;28;20391;-62
2023/07/09 01:14:51;;;;;;;;;;;21.50;97.90;;;;;;5005175;28;19921;-63
2023/07/09 01:17:17;;;;;;;;;;;21.40;97.70;;;;;;5078274;28;19917;-62
2023/07/09 01:19:43;;;;;;;;;;;21.40;98.20;;;;;;5010536;28;19921;-62
2023/07/09 01:22:11;;;;;;;;;;;21.40;98.10;;;;;;5013131;28;20370;-60
2023/07/09 01:24:47;;;;;;;;;;;21.40;98.20;;;;;;5008223;28;20272;-61
2023/07/09 01:27:13;;;;;;;;;;;21.40;98.10;;;;;;5074891;28;19917;-63
2023/07/09 01:29:39;;;;;;;;;;;21.40;98.10;;;;;;5004996;28;19963;-61
2023/07/09 01:32:06;;;;;;;;;;;21.30;98.30;;;;;;5006325;28;19918;-61
2023/07/09 01:34:32;;;;;;;;;;;21.30;98.30;;;;;;5015055;28;19969;-61
2023/07/09 01:36:57;;;;;;;;;;;21.30;98.30;;;;;;5010014;28;19921;-64
2023/07/09 01:39:23;;;;;;;;;;;21.30;98.20;;;;;;5003218;28;19932;-64
2023/07/09 01:41:48;;;;;;;;;;;21.30;98.40;;;;;;5074678;28;19918;-63
2023/07/09 01:44:14;;;;;;;;;;;21.20;98.50;;;;;;5004356;28;19924;-64
2023/07/09 01:46:41;;;;;;;;;;;21.20;98.40;;;;;;5062510;28;19983;-62
2023/07/09 01:49:08;;;;;;;;;;;21.20;98.60;;;;;;5084133;28;20393;-63
2023/07/09 01:51:36;;;;;;;;;;;21.20;98.50;;;;;;5084421;28;19921;-61
2023/07/09 01:54:02;;;;;;;;;;;21.20;98.50;;;;;;5051565;28;19924;-61
2023/07/09 01:56:27;;;;;;;;;;;21.20;98.60;;;;;;5077885;28;19917;-61
2023/07/09 01:58:53;;;;;;;;;;;21.10;98.80;;;;;;5014359;28;20343;-63
2023/07/09 02:01:19;;;;;;;;;;;21.10;98.60;;;;;;5017810;28;20004;-64
2023/07/09 02:03:45;;;;;;;;;;;21.10;98.50;;;;;;5005954;28;19939;-65
2023/07/09 02:06:12;;;;;;;;;;;21.10;98.90;;;;;;5007431;28;20426;-65
2023/07/09 02:08:37;;;;;;;;;;;21.00;98.80;;;;;;5077220;28;19918;-65
2023/07/09 02:11:03;;;;;;;;;;;20.90;98.90;;;;;;5072168;28;20009;-65
2023/07/09 02:13:28;;;;;;;;;;;20.90;99.10;;;;;;5076872;28;19925;-64
2023/07/09 02:15:54;;;;;;;;;;;20.90;99.20;;;;;;5004025;28;19918;-64
2023/07/09 02:18:19;;;;;;;;;;;20.80;99.30;;;;;;5009731;28;19921;-63
2023/07/09 02:20:45;;;;;;;;;;;20.80;99.30;;;;;;5073832;28;20020;-67
2023/07/09 02:23:11;;;;;;;;;;;20.80;99.70;;;;;;5005596;28;19917;-66
2023/07/09 02:25:37;;;;;;;;;;;20.80;99.60;;;;;;5007381;28;19917;-65
2023/07/09 02:28:02;;;;;;;;;;;20.80;99.60;;;;;;5007320;28;20008;-65
2023/07/09 02:30:28;;;;;;;;;;;20.80;99.80;;;;;;5009332;28;19917;-65
2023/07/09 02:32:54;;;;;;;;;;;20.80;99.50;;;;;;5008997;28;20073;-69
2023/07/09 02:35:20;;;;;;;;;;;20.70;99.50;;;;;;5006755;28;20030;-66
2023/07/09 02:37:46;;;;;;;;;;;20.70;99.70;;;;;;5009641;28;20382;-66
2023/07/09 02:40:12;;;;;;;;;;;20.70;99.80;;;;;;5077740;28;19928;-64
2023/07/09 02:42:40;;;;;;;;;;;20.60;99.70;;;;;;5008777;28;19970;-63
2023/07/09 02:45:06;;;;;;;;;;;20.60;99.90;;;;;;5014565;28;19924;-66
2023/07/09 02:47:31;;;;;;;;;;;20.60;99.90;;;;;;5077476;28;19918;-65
2023/07/09 02:49:57;;;;;;;;;;;20.60;99.90;;;;;;5010060;28;19925;-64
2023/07/09 02:52:22;;;;;;;;;;;20.60;99.90;;;;;;5010875;28;20356;-65
2023/07/09 02:54:48;;;;;;;;;;;20.50;99.90;;;;;;5009738;28;19918;-66
2023/07/09 02:57:13;;;;;;;;;;;20.50;99.90;;;;;;5015161;28;20430;-64
2023/07/09 02:59:39;;;;;;;;;;;20.50;99.90;;;;;;5075954;28;19921;-65
2023/07/09 03:02:04;;;;;;;;;;;20.50;99.90;;;;;;5008842;28;19969;-65
2023/07/09 03:04:31;;;;;;;;;;;20.50;99.90;;;;;;5014153;28;19923;-64
2023/07/09 03:06:57;;;;;;;;;;;20.40;99.90;;;;;;5011160;28;19956;-64
2023/07/09 03:09:23;;;;;;;;;;;20.40;99.90;;;;;;5006910;28;19961;-67
2023/07/09 03:11:48;;;;;;;;;;;20.40;99.90;;;;;;5010342;28;20173;-66
2023/07/09 03:14:14;;;;;;;;;;;20.40;99.90;;;;;;5008754;28;20580;-67
2023/07/09 03:16:40;;;;;;;;;;;20.40;99.90;;;;;;5001513;28;19918;-66
2023/07/09 03:19:05;;;;;;;;;;;20.40;99.90;;;;;;5008962;28;20443;-67
2023/07/09 03:21:31;;;;;;;;;;;20.40;99.90;;;;;;5075854;28;19918;-67
2023/07/09 03:23:57;;;;;;;;;;;20.40;99.90;;;;;;5002503;28;19921;-66
2023/07/09 03:26:24;;;;;;;;;;;20.40;99.90;;;;;;5008447;28;19976;-65
2023/07/09 03:28:49;;;;;;;;;;;20.40;99.90;;;;;;5009408;28;19956;-65
2023/07/09 03:31:15;;;;;;;;;;;20.40;99.90;;;;;;5009323;28;19953;-65
2023/07/09 03:33:40;;;;;;;;;;;20.40;99.90;;;;;;5006965;28;19996;-65
2023/07/09 03:36:06;;;;;;;;;;;20.40;99.90;;;;;;5008113;28;19961;-65
2023/07/09 03:38:31;;;;;;;;;;;20.40;99.90;;;;;;5007338;28;19969;-65
2023/07/09 03:40:57;;;;;;;;;;;20.40;99.90;;;;;;5011274;28;19925;-63
2023/07/09 03:43:22;;;;;;;;;;;20.30;99.90;;;;;;5005279;28;20007;-63
2023/07/09 03:45:49;;;;;;;;;;;20.40;99.90;;;;;;5008628;28;19917;-67
2023/07/09 03:48:16;;;;;;;;;;;20.40;99.90;;;;;;5076586;28;20268;-65
2023/07/09 03:50:43;;;;;;;;;;;20.40;99.90;;;;;;5010586;28;20368;-64
2023/07/09 03:53:08;;;;;;;;;;;20.40;99.90;;;;;;4992986;22;20015;-62
2023/07/09 03:55:34;;;;;;;;;;;20.40;99.90;;;;;;4946991;28;20372;-65
2023/07/09 03:57:59;;;;;;;;;;;20.40;99.90;;;;;;4973887;28;19934;-62
2023/07/09 04:00:25;;;;;;;;;;;20.40;99.90;;;;;;4969354;28;19929;-62
2023/07/09 04:02:51;;;;;;;;;;;20.40;99.90;;;;;;4967464;28;19918;-62
2023/07/09 04:05:17;;;;;;;;;;;20.50;99.90;;;;;;4983272;28;20366;-62
2023/07/09 04:07:43;;;;;;;;;;;20.50;99.90;;;;;;5007474;28;19918;-62
2023/07/09 04:10:08;;;;;;;;;;;20.50;99.90;;;;;;4981507;28;20008;-64
2023/07/09 04:12:34;;;;;;;;;;;20.50;99.90;;;;;;4974627;28;19918;-63
2023/07/09 04:15:00;;;;;;;;;;;20.50;99.90;;;;;;4944800;28;19983;-61
2023/07/09 04:17:25;;;;;;;;;;;20.50;99.90;;;;;;4950738;28;19918;-62
2023/07/09 04:19:51;;;;;;;;;;;20.50;99.90;;;;;;4976262;28;19928;-63
2023/07/09 04:22:17;;;;;;;;;;;20.50;99.90;;;;;;4945093;28;19918;-63
2023/07/09 04:24:42;;;;;;;;;;;20.60;99.90;;;;;;4966101;28;19953;-64
2023/07/09 04:27:08;;;;;;;;;;;20.60;99.90;;;;;;4971169;28;20562;-64
2023/07/09 04:29:35;;;;;;;;;;;20.60;99.90;;;;;;4965275;28;19922;-64
2023/07/09 04:32:01;;;;;;;;;;;20.60;99.90;;;;;;4959943;28;19918;-64
2023/07/09 04:34:26;;;;;;;;;;;20.70;99.90;;;;;;4998557;28;19950;-63
2023/07/09 04:36:52;;;;;;;;;;;20.70;99.90;;;;;;4968403;28;19961;-64
2023/07/09 04:39:17;;;;;;;;;;;20.80;99.90;;;;;;4971678;28;19928;-64
2023/07/09 04:41:43;;;;;;;;;;;20.80;99.90;;;;;;4985578;28;20009;-64
2023/07/09 04:44:08;;;;;;;;;;;20.80;99.90;;;;;;4983245;28;19918;-64
2023/07/09 04:46:34;;;;;;;;;;;20.90;99.90;;;;;;4971670;28;19918;-64
2023/07/09 04:49:00;;;;;;;;;;;21.00;99.90;;;;;;4968427;28;20333;-64
2023/07/09 04:51:26;;;;;;;;;;;21.10;99.90;;;;;;4954627;28;19924;-64
2023/07/09 04:53:52;;;;;;;;;;;21.10;99.90;;;;;;4994794;28;20286;-64
2023/07/09 04:56:17;;;;;;;;;;;21.20;99.90;;;;;;4971853;28;19918;-64
2023/07/09 04:58:43;;;;;;;;;;;21.20;99.90;;;;;;4944092;28;19946;-63
2023/07/09 05:01:09;;;;;;;;;;;21.30;99.90;;;;;;4972261;28;19925;-63
2023/07/09 05:03:34;;;;;;;;;;;21.30;99.90;;;;;;4961596;28;19918;-64
2023/07/09 05:06:00;;;;;;;;;;;21.40;99.90;;;;;;5009547;28;19968;-63
2023/07/09 05:08:25;;;;;;;;;;;21.40;99.90;;;;;;4968408;28;19944;-64
2023/07/09 05:10:52;;;;;;;;;;;21.40;99.90;;;;;;4963052;28;20427;-64
2023/07/09 05:13:18;;;;;;;;;;;21.50;99.90;;;;;;4975185;28;19987;-62
2023/07/09 05:15:45;;;;;;;;;;;21.50;99.90;;;;;;4972907;28;20414;-62
2023/07/09 05:18:11;;;;;;;;;;;21.50;99.90;;;;;;4949968;28;20268;-63
2023/07/09 05:20:37;;;;;;;;;;;21.50;99.90;;;;;;4971557;28;20016;-64
2023/07/09 05:23:03;;;;;;;;;;;21.50;99.90;;;;;;4966633;28;20017;-64
2023/07/09 05:25:28;;;;;;;;;;;21.60;99.90;;;;;;4954056;28;20364;-62
2023/07/09 05:27:54;;;;;;;;;;;21.60;99.90;;;;;;4961961;28;19922;-64
2023/07/09 05:30:20;;;;;;;;;;;21.60;99.90;;;;;;4957214;28;20016;-63
2023/07/09 05:32:46;;;;;;;;;;;21.60;99.90;;;;;;4981396;28;19971;-64
2023/07/09 05:35:11;;;;;;;;;;;21.60;99.90;;;;;;4931373;28;20017;-64
2023/07/09 05:37:37;;;;;;;;;;;21.60;99.90;;;;;;4971168;28;20419;-64
2023/07/09 05:40:05;;;;;;;;;;;21.60;99.90;;;;;;4952556;28;19979;-62
2023/07/09 05:42:31;;;;;;;;;;;21.60;99.90;;;;;;4979817;28;20100;-64
2023/07/09 05:44:56;;;;;;;;;;;21.60;99.90;;;;;;4969154;28;19973;-63
2023/07/09 05:47:22;;;;;;;;;;;21.70;99.90;;;;;;4993720;28;19918;-64
2023/07/09 05:49:50;;;;;;;;;;;21.70;99.90;;;;;;4949631;28;20387;-64
2023/07/09 05:52:16;;;;;;;;;;;21.70;99.90;;;;;;4980208;28;19953;-63
2023/07/09 05:54:41;;;;;;;;;;;21.70;99.90;;;;;;5006920;28;20285;-63
2023/07/09 05:57:07;;;;;;;;;;;21.80;99.90;;;;;;4953931;28;19918;-64
2023/07/09 05:59:32;;;;;;;;;;;21.80;99.90;;;;;;4963811;28;19926;-65
2023/07/09 06:02:00;;;;;;;;;;;21.80;99.90;;;;;;4964475;28;19961;-64
2023/07/09 06:04:26;;;;;;;;;;;21.90;99.90;;;;;;4974353;28;19921;-63
2023/07/09 06:06:51;;;;;;;;;;;21.90;99.90;;;;;;4958758;28;19975;-64
2023/07/09 06:09:17;;;;;;;;;;;21.90;99.90;;;;;;4969817;28;19970;-64
2023/07/09 06:11:43;;;;;;;;;;;22.00;99.90;;;;;;4966829;28;19918;-64
2023/07/09 06:14:09;;;;;;;;;;;22.00;99.90;;;;;;4979920;28;19918;-64
2023/07/09 06:16:35;;;;;;;;;;;22.00;99.90;;;;;;4979710;28;19964;-64
2023/07/09 06:19:00;;;;;;;;;;;22.10;99.90;;;;;;4965520;28;20384;-65
2023/07/09 06:21:26;;;;;;;;;;;22.10;99.90;;;;;;4934707;28;19917;-64
2023/07/09 06:23:51;;;;;;;;;;;22.20;99.90;;;;;;4961351;28;20005;-64
2023/07/09 06:26:17;;;;;;;;;;;22.20;99.90;;;;;;5019346;28;20367;-64
2023/07/09 06:28:43;;;;;;;;;;;22.20;99.90;;;;;;4972367;28;20406;-64
2023/07/09 06:31:08;;;;;;;;;;;22.20;99.90;;;;;;4982534;28;19917;-63
2023/07/09 06:33:34;;;;;;;;;;;22.30;99.90;;;;;;4991609;28;19926;-64
2023/07/09 06:36:00;;;;;;;;;;;22.30;99.90;;;;;;4958488;28;19918;-64
2023/07/09 06:38:27;;;;;;;;;;;22.30;99.90;;;;;;4973460;28;21175;-64
2023/07/09 06:40:52;;;;;;;;;;;22.30;99.90;;;;;;4946541;28;19927;-62
2023/07/09 06:43:18;;;;;;;;;;;22.40;99.90;;;;;;4968481;28;20021;-64
2023/07/09 06:45:51;;;;;;;;;;;22.40;99.90;;;;;;4953924;28;19923;-64
2023/07/09 06:48:17;;;;;;;;;;;22.50;99.90;;;;;;4953952;28;19996;-63
2023/07/09 06:50:42;;;;;;;;;;;22.50;99.90;;;;;;4966222;28;20004;-65
2023/07/09 06:53:09;;;;;;;;;;;22.60;99.90;;;;;;4959776;28;19962;-64
2023/07/09 06:55:35;;;;;;;;;;;22.60;99.90;;;;;;4981870;28;19973;-62
2023/07/09 06:58:00;;;;;;;;;;;22.70;99.90;;;;;;4989359;28;20044;-64
2023/07/09 07:00:26;;;;;;;;;;;22.80;99.90;;;;;;4965569;28;19963;-64
2023/07/09 07:02:51;;;;;;;;;;;22.80;99.90;;;;;;4983929;28;20296;-64
2023/07/09 07:05:17;;;;;;;;;;;22.90;99.90;;;;;;4968362;28;19925;-62
2023/07/09 07:07:44;;;;;;;;;;;22.90;99.90;;;;;;4960367;28;20013;-62
2023/07/09 07:10:10;;;;;;;;;;;23.00;99.90;;;;;;4982774;28;20368;-64
2023/07/09 07:12:45;;;;;;;;;;;23.10;99.90;;;;;;4984255;28;19924;-62
2023/07/09 07:15:13;;;;;;;;;;;23.20;99.90;;;;;;4947484;28;20005;-63
2023/07/09 07:17:38;;;;;;;;;;;23.30;99.90;;;;;;4954276;28;20423;-63
2023/07/09 07:20:05;;;;;;;;;;;23.30;99.90;;;;;;4944071;28;20055;-63
2023/07/09 07:22:31;;;;;;;;;;;23.30;99.90;;;;;;4948138;28;20005;-63
2023/07/09 07:24:56;;;;;;;;;;;23.40;99.90;;;;;;4947814;28;19922;-64
2023/07/09 07:27:22;;;;;;;;;;;23.50;99.90;;;;;;4956295;28;19945;-62
2023/07/09 07:29:47;;;;;;;;;;;23.60;99.90;;;;;;4952774;28;19925;-62
2023/07/09 07:32:13;;;;;;;;;;;23.60;99.90;;;;;;4969018;28;19922;-63
2023/07/09 07:34:38;;;;;;;;;;;23.70;99.90;;;;;;4977394;28;20016;-64
2023/07/09 07:37:04;;;;;;;;;;;23.80;99.90;;;;;;4943114;28;19961;-62
2023/07/09 07:39:29;;;;;;;;;;;23.90;99.90;;;;;;4960224;28;19931;-63
2023/07/09 07:41:55;;;;;;;;;;;24.00;99.90;;;;;;4966916;28;19917;-64
2023/07/09 07:44:21;;;;;;;;;;;24.10;99.90;;;;;;4956216;28;20009;-62
2023/07/09 07:46:47;;;;;;;;;;;24.20;99.90;;;;;;4956207;28;20048;-62
2023/07/09 07:49:12;;;;;;;;;;;24.30;99.90;;;;;;4960773;28;19919;-61
2023/07/09 07:51:38;;;;;;;;;;;24.40;99.90;;;;;;4956873;28;20376;-64
2023/07/09 07:54:04;;;;;;;;;;;24.50;99.90;;;;;;4950755;28;19922;-64
2023/07/09 07:56:29;;;;;;;;;;;24.50;99.90;;;;;;4954222;28;19973;-63
2023/07/09 07:58:55;;;;;;;;;;;24.60;99.90;;;;;;4961383;28;19957;-63
2023/07/09 08:01:21;;;;;;;;;;;24.70;99.90;;;;;;4961102;28;19933;-63
2023/07/09 08:03:46;;;;;;;;;;;24.80;99.90;;;;;;4957175;28;19940;-64
2023/07/09 08:06:12;;;;;;;;;;;24.90;99.90;;;;;;4977893;28;19976;-64
2023/07/09 08:08:37;;;;;;;;;;;25.00;99.90;;;;;;4988345;28;20015;-64
2023/07/09 08:11:07;;;;;;;;;;;25.10;99.90;;;;;;4976655;28;20324;-62
2023/07/09 08:13:33;;;;;;;;;;;25.20;99.90;;;;;;4953176;28;19968;-63
2023/07/09 08:15:59;;;;;;;;;;;25.30;99.90;;;;;;4963010;28;19922;-63
2023/07/09 08:18:24;;;;;;;;;;;25.40;99.90;;;;;;4969489;28;20398;-63
2023/07/09 08:20:50;;;;;;;;;;;25.50;99.90;;;;;;4951267;28;20289;-63
2023/07/09 08:23:15;;;;;;;;;;;25.60;99.90;;;;;;4962422;28;19925;-63
2023/07/09 08:25:41;;;;;;;;;;;25.70;99.90;;;;;;4961109;28;19919;-62
2023/07/09 08:28:06;;;;;;;;;;;25.80;99.90;;;;;;4958171;28;19979;-64
2023/07/09 08:30:32;;;;;;;;;;;26.00;99.90;;;;;;4969529;28;20359;-63
2023/07/09 08:32:57;;;;;;;;;;;26.20;99.90;;;;;;4964968;28;20029;-63
2023/07/09 08:35:23;;;;;;;;;;;26.30;99.90;;;;;;4968621;28;19926;-63
2023/07/09 08:37:48;;;;;;;;;;;26.60;99.90;;;;;;4950761;28;20394;-63
2023/07/09 08:40:16;;;;;;;;;;;26.80;99.90;;;;;;4975576;28;19926;-63
2023/07/09 08:42:48;;;;;;;;;;;27.10;99.90;;;;;;4953646;28;21149;-63
2023/07/09 08:45:19;;;;;;;;;;;27.20;99.90;;;;;;4970980;28;19918;-63
2023/07/09 08:47:49;;;;;;;;;;;27.60;99.60;;;;;;4967033;28;19936;-63
2023/07/09 08:50:17;;;;;;;;;;;27.70;99.40;;;;;;4961776;28;19934;-64
2023/07/09 08:52:44;;;;;;;;;;;27.90;99.60;;;;;;4957982;28;19918;-63
2023/07/09 08:55:17;;;;;;;;;;;28.10;98.60;;;;;;4972065;28;19989;-64
2023/07/09 08:57:55;;;;;;;;;;;28.30;98.60;;;;;;4952612;28;19919;-63
2023/07/09 09:00:29;;;;;;;;;;;28.50;97.30;;;;;;4958662;28;19975;-63
2023/07/09 09:02:58;;;;;;;;;;;28.70;97.30;;;;;;4967039;28;20299;-64
2023/07/09 09:05:24;;;;;;;;;;;28.90;96.70;;;;;;4968810;28;19964;-63
2023/07/09 09:08:10;;;;;;;;;;;29.00;95.40;;;;;;4970783;28;19918;-63
2023/07/09 09:10:53;;;;;;;;;;;29.10;94.90;;;;;;4982221;28;20399;-63
2023/07/09 09:13:20;;;;;;;;;;;29.20;94.70;;;;;;4968953;28;19969;-63
2023/07/09 09:15:47;;;;;;;;;;;29.30;94.30;;;;;;4956999;28;19980;-63
2023/07/09 09:18:20;;;;;;;;;;;29.50;94.10;;;;;;4970268;28;19957;-63
2023/07/09 09:20:48;;;;;;;;;;;29.50;93.40;;;;;;4968116;28;19922;-63
2023/07/09 09:23:15;;;;;;;;;;;29.50;92.80;;;;;;4969104;28;20467;-63
2023/07/09 09:25:42;;;;;;;;;;;29.60;92.90;;;;;;4965434;28;19942;-64
2023/07/09 09:28:08;;;;;;;;;;;29.60;92.80;;;;;;4964140;28;19918;-63
2023/07/09 09:30:34;;;;;;;;;;;29.70;92.80;;;;;;4975446;28;20341;-63
2023/07/09 09:33:00;;;;;;;;;;;29.70;92.70;;;;;;4962978;28;19922;-64
2023/07/09 09:35:34;;;;;;;;;;;29.80;92.70;;;;;;4947369;28;19917;-63
2023/07/09 09:37:59;;;;;;;;;;;30.10;92.40;;;;;;4943787;28;20459;-63
2023/07/09 09:40:26;;;;;;;;;;;30.30;92.30;;;;;;4973452;28;20012;-63
2023/07/09 09:42:54;;;;;;;;;;;30.50;92.60;;;;;;4965399;28;19918;-63
2023/07/09 09:45:20;;;;;;;;;;;30.70;91.00;;;;;;4983983;28;19964;-63
2023/07/09 09:47:46;;;;;;;;;;;30.60;88.60;;;;;;4945440;28;19918;-63
2023/07/09 09:50:19;;;;;;;;;;;30.60;89.90;;;;;;4953418;28;19934;-63
2023/07/09 09:52:46;;;;;;;;;;;30.60;90.50;;;;;;4977207;22;19963;-64
2023/07/09 09:55:33;;;;;;;;;;;30.60;89.60;;;;;;4987428;28;19929;-60
2023/07/09 09:57:59;;;;;;;;;;;30.60;89.70;;;;;;5074884;28;19928;-64
2023/07/09 10:00:26;;;;;;;;;;;30.80;88.60;;;;;;5075613;28;19917;-64
2023/07/09 10:02:57;;;;;;;;;;;30.80;87.50;;;;;;5071703;28;19931;-65
2023/07/09 10:05:27;;;;;;;;;;;31.00;86.30;;;;;;5078467;28;19916;-65
2023/07/09 10:07:56;;;;;;;;;;;31.10;86.20;;;;;;5070043;28;20288;-65
2023/07/09 10:10:23;;;;;;;;;;;31.20;84.80;;;;;;5085012;28;20339;-65
2023/07/09 10:12:49;;;;;;;;;;;31.30;84.40;;;;;;5084836;28;19985;-65
2023/07/09 10:15:18;;;;;;;;;;;31.50;84.80;;;;;;5090221;28;19983;-65
2023/07/09 10:17:48;;;;;;;;;;;31.50;82.00;;;;;;5065637;28;19916;-65
2023/07/09 10:20:25;;;;;;;;;;;31.60;82.60;;;;;;5083701;28;19916;-65
2023/07/09 10:23:09;;;;;;;;;;;31.80;83.70;;;;;;5088823;28;19923;-62
2023/07/09 10:25:37;;;;;;;;;;;31.90;83.40;;;;;;5083726;28;19938;-65
2023/07/09 10:28:21;;;;;;;;;;;31.90;82.10;;;;;;5056187;28;20381;-65
2023/07/09 10:31:17;;;;;;;;;;;32.10;82.00;;;;;;5089105;28;19962;-64
2023/07/09 10:33:56;;;;;;;;;;;32.10;82.40;;;;;;5073886;28;20370;-65
2023/07/09 10:36:24;;;;;;;;;;;32.10;83.30;;;;;;5088016;28;19920;-64
2023/07/09 10:38:53;;;;;;;;;;;32.20;83.30;;;;;;5090549;28;19939;-64
2023/07/09 10:41:19;;;;;;;;;;;32.20;81.20;;;;;;5090362;28;19927;-65
2023/07/09 10:43:45;;;;;;;;;;;32.30;81.10;;;;;;5075859;28;19916;-65
2023/07/09 10:46:13;;;;;;;;;;;32.40;81.10;;;;;;5085084;28;20289;-65
2023/07/09 10:48:43;;;;;;;;;;;32.50;80.70;;;;;;5080685;28;19916;-65
2023/07/09 10:51:18;;;;;;;;;;;32.70;78.20;;;;;;5083008;28;19916;-62
2023/07/09 10:53:50;;;;;;;;;;;32.70;78.20;;;;;;5093932;28;19991;-65
2023/07/09 10:56:17;;;;;;;;;;;32.70;81.00;;;;;;5088412;28;19945;-65
2023/07/09 10:58:48;;;;;;;;;;;32.80;80.10;;;;;;5082313;28;19923;-65
2023/07/09 11:01:17;;;;;;;8.27;6.13;;;33.00;78.10;;;;;;5076163;28;19916;-66
2023/07/09 11:03:52;;;;;;;12.30;7.10;;;33.10;80.70;;;;;;5084567;28;20414;-64
2023/07/09 11:06:24;;;;;;;9.38;6.90;;;33.50;76.20;;;;;;5085577;28;20422;-66
2023/07/09 11:08:53;;;;;;;7.40;6.00;;;33.80;75.40;;;;;;5045955;28;20102;-66
2023/07/09 11:11:37;;;;;;;10.75;6.47;;;33.80;76.30;;;;;;5070642;28;20066;-67
2023/07/09 11:14:22;;;;;;;7.45;5.72;;;33.80;75.20;;;;;;5087782;28;20028;-66
2023/07/09 11:16:47;;;;;;;;;;;33.60;75.40;;;;;;5076570;28;20044;-66
2023/07/09 11:19:15;;;;;;;;;;;33.60;73.80;;;;;;5085442;28;19973;-67
2023/07/09 11:22:02;;;;;;;;;;;33.50;73.40;;;;;;5084669;28;20307;-66
2023/07/09 11:24:30;;;;;;;;;;;33.30;72.90;;;;;;5072267;28;19927;-67
2023/07/09 11:26:56;;;;;;;;;;;33.40;74.00;;;;;;5084548;28;20427;-66
2023/07/09 11:29:23;;;;;;;;;;;33.50;75.00;;;;;;5094129;28;19920;-67
2023/07/09 11:31:49;;;;;;;;;;;33.60;74.00;;;;;;5086504;28;19946;-66
2023/07/09 11:34:19;;;;;;;;;;;33.70;74.70;;;;;;5078702;28;19964;-65
2023/07/09 11:36:51;;;;;;;;;;;33.90;74.40;;;;;;5064387;28;19950;-67
2023/07/09 11:39:23;;;;;;;;;;;34.00;74.00;;;;;;5070335;28;19976;-64
2023/07/09 11:41:48;;;;;;;;;;;34.20;73.40;;;;;;5075767;28;20382;-67
2023/07/09 11:44:17;;;;;;;;;;;34.40;72.00;;;;;;5091611;28;19938;-67
2023/07/09 11:47:01;;;;;;;;;;;34.50;72.60;;;;;;5071225;28;19920;-65
2023/07/09 11:49:44;;;;;;;8.77;5.70;;;34.50;72.50;;;;;;5090369;28;19920;-66
2023/07/09 11:52:10;;;;;;;9.60;5.70;;;34.70;72.50;;;;;;5088035;28;20036;-65
2023/07/09 11:54:37;;;;;;;9.48;5.78;;;34.60;72.70;;;;;;5060110;28;20504;-65
2023/07/09 11:57:09;;;;;;;8.75;5.28;;;34.80;72.00;;;;;;5082468;28;20051;-66
2023/07/09 11:59:40;;;;;;;8.88;6.25;;;34.90;71.60;;;;;;5086284;28;20399;-65
2023/07/09 12:02:17;;;;;;;9.55;5.65;;;35.00;70.90;;;;;;5081667;28;20032;-66
2023/07/09 12:04:44;;;;;;;8.45;5.80;;;35.00;70.50;;;;;;5064847;28;20032;-65
2023/07/09 12:07:13;;;;;;;9.10;5.40;;;35.20;70.60;;;;;;5082013;28;20553;-66
2023/07/09 12:09:43;;;;;;;11.67;5.77;;;35.30;70.10;;;;;;5089108;28;20044;-65
2023/07/09 12:12:17;;;;;;;9.15;5.60;;;35.40;70.10;;;;;;5081425;28;20124;-66
2023/07/09 12:14:43;;;;;;;6.18;5.28;;;35.40;69.40;;;;;;5062232;28;20325;-66
2023/07/09 12:17:09;;;;;;;9.23;5.78;;;35.40;69.60;;;;;;5082988;28;20111;-65
2023/07/09 12:19:35;;;;;;;7.93;5.88;;;35.30;68.40;;;;;;5085744;28;20494;-65
2023/07/09 12:22:01;;;;;;;7.20;5.63;;;35.20;68.40;;;;;;5081725;28;20800;-66
2023/07/09 12:24:36;;;;;;;8.48;5.50;;;35.00;68.10;;;;;;5074881;28;20422;-65
2023/07/09 12:27:15;;;;;;;8.68;5.20;;;35.20;64.60;;;;;;5077644;28;20418;-65
2023/07/09 12:29:41;;;;;;;10.30;5.20;;;35.30;64.50;;;;;;5088609;28;20756;-65
2023/07/09 12:32:17;;;;;;;10.10;6.10;;;35.30;63.40;;;;;;5077782;28;20407;-66
2023/07/09 12:34:47;;;;;;;8.00;5.47;;;35.20;62.90;;;;;;5076555;28;20398;-66
2023/07/09 12:37:15;;;;;;;8.73;5.50;;;35.10;63.70;;;;;;5065248;28;20518;-66
2023/07/09 12:39:40;;;;;;;6.88;5.15;;;35.10;64.90;;;;;;5079033;28;20415;-66
2023/07/09 12:42:16;;;;;;;8.23;5.50;;;35.10;65.00;;;;;;5063677;28;20766;-65
2023/07/09 12:44:41;;;;;;;8.00;5.53;;;35.10;63.80;;;;;;5088720;28;20413;-65
2023/07/09 12:47:16;;;;;;;8.80;5.78;;;35.30;64.60;;;;;;5083909;28;20386;-65
2023/07/09 12:49:44;;;;;;;7.75;5.65;;;35.30;64.60;;;;;;5073116;28;21009;-65
2023/07/09 12:52:21;;;;;;;8.00;5.60;;;35.30;64.60;;;;;;5088689;28;21082;-65
2023/07/09 12:55:02;;;;;;;8.90;5.60;;;35.10;64.30;;;;;;5090919;28;20934;-65
2023/07/09 12:57:30;;;;;;;7.68;5.75;;;34.90;64.60;;;;;;5089326;28;20441;-65
2023/07/09 12:59:56;;;;;;;9.15;6.15;;;34.70;64.60;;;;;;5072305;28;20429;-66
2023/07/09 13:02:27;;;;;;;8.60;5.80;;;34.40;62.80;;;;;;5083658;28;20397;-65
2023/07/09 13:05:06;;;;;;;9.10;5.82;;;34.10;64.20;;;;;;5084512;28;20421;-65
2023/07/09 13:07:38;;;;;;;9.48;5.75;;;33.80;65.30;;;;;;5078381;28;20885;-65
2023/07/09 13:10:18;;;;;;;7.55;5.82;;;33.60;64.90;;;;;;5089152;28;20910;-64
2023/07/09 13:12:49;;;;;;;9.05;5.70;;;33.30;66.40;;;;;;5087816;28;20405;-66
2023/07/09 13:15:38;;;;;;;8.75;5.60;;;33.20;67.80;;;;;;5089754;28;20413;-65
2023/07/09 13:18:06;;;;;;;7.68;5.68;;;32.90;69.10;;;;;;5076256;28;20414;-65
2023/07/09 13:20:34;;;;;;;8.23;6.10;;;32.80;70.10;;;;;;5079710;28;20439;-65
2023/07/09 13:23:00;;;;;;;9.00;5.80;;;32.60;71.20;;;;;;5085790;28;20410;-65
2023/07/09 13:25:27;;;;;;;8.87;5.70;;;32.50;71.90;;;;;;5081914;28;20409;-64
2023/07/09 13:27:53;;;;;;;7.18;5.57;;;32.30;72.10;;;;;;5087020;28;20390;-65
2023/07/09 13:30:19;;;;;;;8.70;6.00;;;32.20;72.20;;;;;;5080674;28;20461;-65
2023/07/09 13:32:47;;;;;;;7.47;5.72;;;32.10;72.50;;;;;;5062040;28;20466;-64
2023/07/09 13:35:18;;;;;;;9.48;6.05;;;32.00;73.20;;;;;;5088803;28;20898;-65
2023/07/09 13:37:46;;;;;;;9.45;6.07;;;31.90;73.90;;;;;;5081629;28;20405;-66
2023/07/09 13:40:14;;;;;;;8.10;6.32;;;31.80;74.30;;;;;;5088588;28;20410;-65
2023/07/09 13:42:42;;;;;;;9.05;6.18;;;31.70;75.20;;;;;;5087523;28;20467;-65
2023/07/09 13:45:22;;;;;;;8.23;6.38;;;31.60;76.30;;;;;;5085524;28;20414;-64
2023/07/09 13:47:50;;;;;;;8.32;5.95;;;31.60;77.60;;;;;;5084364;28;20842;-65
2023/07/09 13:50:16;;;;;;;8.95;6.32;;;31.50;78.00;;;;;;5083246;28;20960;-64
2023/07/09 13:52:42;;;;;;;9.07;6.40;;;31.40;78.60;;;;;;5085132;28;20421;-65
2023/07/09 13:55:26;;;;;;;8.88;6.13;;;31.40;79.40;;;;;;5065820;28;20684;-65
2023/07/09 13:57:53;;;;;;;9.33;6.00;;;31.30;80.00;;;;;;5085874;28;20905;-64
2023/07/09 14:00:18;;;;;;;7.47;5.60;;;31.20;80.10;;;;;;5084469;28;20909;-64
2023/07/09 14:02:48;;;;;;;8.50;5.93;;;31.20;80.50;;;;;;5065144;28;20425;-65